Terminal Aerodrome Forecast
Issued by NWS

Home | Current Version | Previous Version | Text Only | Print | Product List | Glossary On
Versions: 1 2 3 4 5 6 7 8 9 10 11 12 13 14 15 16 17 18 19 20 21 22 23 24 25 26
000
FTAK31 PANC 291745 AAA
TAFAGK
TAF AMD
PAGK 291745Z 2918/3018 VRB03KT 5SM -SN SCT025 OVC035
      TEMPO 2918/2922 2SM -SN BR BKN025
     FM300000 VRB03KT P6SM -SN SCT020 OVC040
     FM300900 VRB04KT P6SM VCSH SCT040 BKN060=

USA.gov is the U.S. government's official web portal to all federal, state and local government web resources and services.